Sonoma, CA

9:40 PM PST on December 22, 2014 (GMT -0800)
Just off the Plaza | Change Station
CLOSE
Current Station
Personal Weather Station
Location: Sonoma, CA
Elevation: 80 ft
Nearby Weather Stations
Active Advisory: Coastal Flood Advisory

Elev 80 ft 38.29 °N, 122.46 °W | Updated 12 seconds ago

Partly Cloudy
Partly Cloudy
52.3 °F
Feels Like 52.3 °F
N
0.0
Wind Variable Wind from WSW
Gusts 0.0 mph

Today
High -- | Low -- °F
--% Chance of Precip.
Yesterday
High -- | Low -- °F
Precip. -- in
7:23 AM 4:53 PM
New Moon, 2% visible
Pressure 30.20 in
Visibility 0.5 miles
Clouds
Dew Point 51 °F
Humidity 94%
Rainfall 0.02 in
Snow Depth Not available.
UV Not available.
Pollen 4.40 out of 12
Air Quality Not available.
Flu Activity Not available.
SPECI KAPC 230513Z AUTO 00000KT 1/2SM FG VV001 11/11 A3020 RMK AO2 T01060106

More Conditions Fewer Conditions

Pressure 30.20 in
Visibility 0.5 miles
Clouds
Dew Point 51 °F
Humidity 94%
Rainfall 0.02 in
Snow Depth Not available.
UV Not available.
Pollen 4.40 out of 12
Air Quality Not available.
Flu Activity Not available.
SPECI KAPC 230513Z AUTO 00000KT 1/2SM FG VV001 11/11 A3020 RMK AO2 T01060106

More Conditions Fewer Conditions

10-Day Weather Forecast

Almanac

Astronomy

Dec. 22, 2014 Rise Set
Actual Time
Civil Twilight
Nautical Twilight
Astronomical Twilight
Moon
Length of Visible Light
Length of Day
Tomorrow will be .
, % of the Moon is Illuminated

Today's Extremes

State Highs State Lows

Community

WunderPhotos

Upload Photos

1,779,786 photos uploaded!

WunderBlogs® & News

Nearby

Air Quality

  Air Quality AQ Index Pollutant
Not available.

Snow Depth

Station Depth Elevation

Earthquake Activity

City Distance Mag. Time & Date
Minimum magnitude displayed is 2.5.

Coastal Water Temperatures

Place Temperature

Nearby Weather Stations